San Francisco, CA (94122)

11:27 AM PDT on July 02, 2015 (GMT -0700)
Outer Sunset | | Change Station
CLOSE
Current Station
Personal Weather Station
Location: San Francisco, CA
Elevation: 154 ft
Nearby Weather Stations

Elev 154 ft 37.76 °N, 122.50 °W | Updated 27 minutes ago

Partly Cloudy
Partly Cloudy
63.0 °F
Feels Like 63.0 °F
N
6.0
Wind Variable Wind from SW
Gusts 12.0 mph

Today
High -- | Low -- °F
--% Chance of Precip.
Yesterday
High -- | Low -- °F
Precip. -- in
5:52 AM 8:35 PM
Waxing Gibbous, 99% visible
Pressure 29.97 in
Visibility 10.0 miles
Clouds Few 1000 ft
Scattered Clouds 14000 ft
Mostly Cloudy 18000 ft
Dew Point 63 °F
Humidity 100%
Rainfall in
Snow Depth Not available.
UV 5 out of 12
Pollen 4.80 out of 12
Air Quality Not available.
Flu Activity Not available.
METAR KSFO 021756Z 01003KT 10SM FEW010 SCT140 BKN180 20/14 A2996 RMK AO2 SLP147 T02000144 10200 20144 50003

More Conditions Fewer Conditions

Pressure 29.97 in
Visibility 10.0 miles
Clouds Few 1000 ft
Scattered Clouds 14000 ft
Mostly Cloudy 18000 ft
Dew Point 63 °F
Humidity 100%
Rainfall in
Snow Depth Not available.
UV 5 out of 12
Pollen 4.80 out of 12
Air Quality Not available.
Flu Activity Not available.
METAR KSFO 021756Z 01003KT 10SM FEW010 SCT140 BKN180 20/14 A2996 RMK AO2 SLP147 T02000144 10200 20144 50003

More Conditions Fewer Conditions

10-Day Weather Forecast

×

Almanac

Astronomy

Jul. 02, 2015 Rise Set
Actual Time
Civil Twilight
Nautical Twilight
Astronomical Twilight
Moon
Length of Visible Light
Length of Day
Tomorrow will be .
, % of the Moon is Illuminated

Today's Extremes

State Highs State Lows

Community

WunderPhotos

Upload Photos

1,834,510 photos uploaded!

WunderBlogs® & News

Nearby

Air Quality

  Air Quality AQ Index Pollutant
Not available.

Snow Depth

Station Depth Elevation

Earthquake Activity

City Distance Mag. Time & Date
Minimum magnitude displayed is 2.5.

Coastal Water Temperatures

Place Temperature

Stations

Nearby Weather Stations

Station Location Temp. Windchill Dew Point Humidity Wind Precip. Elev Updated Type